Time;durP1;ratioP1;P1;durP2;ratioP2;P2;SDS_P1;SDS_P2;PMS_P1;PMS_P2;Temp;Humidity;BMP_temperature;BMP_pressure;BME280_temperature;BME280_humidity;BME280_pressure;Samples;Min_cycle;Max_cycle;Signal;HPM_P1;HPM_P2
2022/03/28 08:52:06;;;;;;;9.18;8.27;;;7.20;99.90;;;;;;5132815;27;1285822;-27
2022/03/28 08:54:32;;;;;;;10.38;9.32;;;7.80;79.80;;;;;;5134246;27;20054;-27
2022/03/28 08:56:58;;;;;;;11.82;9.68;;;7.70;96.60;;;;;;5153112;27;20047;-27
2022/03/28 08:59:23;;;;;;;12.73;9.90;;;7.90;1.00;;;;;;5152518;27;20050;-27
2022/03/28 09:01:50;;;;;;;13.40;9.23;;;7.80;84.90;;;;;;5134133;27;20035;-27
2022/03/28 09:04:16;;;;;;;12.45;9.35;;;7.80;99.90;;;;;;5117933;27;20054;-27
2022/03/28 09:06:43;;;;;;;17.30;10.38;;;7.90;99.90;;;;;;5134170;27;20532;-27
2022/03/28 09:09:26;;;;;;;17.02;10.45;;;8.00;99.90;;;;;;5116476;27;20484;-27
2022/03/28 09:11:56;;;;;;;13.82;10.50;;;8.10;99.90;;;;;;5152223;27;20051;-27
2022/03/28 09:14:30;;;;;;;14.45;10.02;;;8.10;99.90;;;;;;5152276;27;20051;-27
2022/03/28 09:17:09;;;;;;;11.70;10.00;;;8.00;43.80;;;;;;5147948;27;20104;-28
2022/03/28 09:19:45;;;;;;;14.00;10.95;;;8.30;93.30;;;;;;5132162;28;20043;-29
2022/03/28 09:22:12;;;;;;;13.10;10.23;;;8.30;54.90;;;;;;5130730;28;20411;-27
2022/03/28 09:24:38;;;;;;;12.85;11.02;;;8.40;93.10;;;;;;5130808;28;20500;-27
2022/03/28 09:27:11;;;;;;;10.73;9.63;;;8.40;1.00;;;;;;5130992;28;20054;-27
2022/03/28 09:29:56;;;;;;;14.57;11.40;;;8.50;1.00;;;;;;5130873;28;20496;-27
2022/03/28 09:32:24;;;;;;;11.45;10.23;;;8.60;1.00;;;;;;5131319;28;20088;-27
2022/03/28 09:35:09;;;;;;;12.90;10.35;;;8.80;35.40;;;;;;5131772;28;20081;-28
2022/03/28 09:37:56;;;;;;;14.48;11.82;;;8.80;1.00;;;;;;5131151;28;20083;-28
2022/03/28 09:40:32;;;;;;;12.30;10.73;;;9.00;1.00;;;;;;5113301;28;20384;-27
2022/03/28 09:43:01;;;;;;;15.32;12.13;;;8.90;1.00;;;;;;5131036;28;20073;-27
2022/03/28 09:45:33;;;;;;;13.93;11.98;;;8.90;1.00;;;;;;5112995;28;20201;-27
2022/03/28 09:48:07;;;;;;;12.02;9.25;;;9.00;99.90;;;;;;5130671;28;20492;-27
2022/03/28 09:50:37;;;;;;;13.73;11.20;;;9.10;1.00;;;;;;5137916;27;20051;-28
2022/03/28 09:53:31;;;;;;;15.82;10.88;;;8.90;99.90;;;;;;5113390;28;20047;-28
2022/03/28 09:55:59;;;;;;;14.20;10.48;;;8.90;99.90;;;;;;5129831;28;20076;-27
2022/03/28 09:58:45;;;;;;;13.15;11.75;;;9.00;99.90;;;;;;5112461;28;20047;-28
2022/03/28 10:01:30;;;;;;;13.20;11.00;;;9.00;99.90;;;;;;5112654;28;20051;-27
2022/03/28 10:04:05;;;;;;;14.57;11.80;;;9.10;99.90;;;;;;5116945;28;20126;-27
2022/03/28 10:06:32;;;;;;;15.52;11.82;;;9.20;99.90;;;;;;5117568;28;20078;-28
2022/03/28 10:08:59;;;;;;;13.73;11.68;;;9.20;99.90;;;;;;5116895;28;20101;-28
2022/03/28 10:11:26;;;;;;;17.33;13.38;;;9.40;99.90;;;;;;5117331;28;20050;-27
2022/03/28 10:13:51;;;;;;;15.82;11.70;;;9.30;99.90;;;;;;5116803;28;20049;-28
2022/03/28 10:16:17;;;;;;;13.52;11.82;;;9.30;99.90;;;;;;5098504;28;20138;-29
2022/03/28 10:18:45;;;;;;;13.70;11.55;;;9.50;99.90;;;;;;5116778;28;20139;-28
2022/03/28 10:21:37;;;;;;;13.75;11.27;;;9.70;99.90;;;;;;5098477;28;20131;-27
2022/03/28 10:24:15;;;;;;;14.68;10.80;;;9.70;99.90;;;;;;5114189;28;20062;-27
2022/03/28 10:26:47;;;;;;;12.95;11.55;;;9.80;99.90;;;;;;5116474;28;20060;-27
2022/03/28 10:29:17;;;;;;;13.85;11.75;;;9.90;99.90;;;;;;5116986;28;20047;-28
2022/03/28 10:31:53;;;;;;;12.90;11.52;;;10.20;99.90;;;;;;5116387;28;20080;-28
2022/03/28 10:34:56;;;;;;;12.90;10.75;;;10.40;99.90;;;;;;5116367;28;20055;-27
2022/03/28 10:37:37;;;;;;;11.53;10.43;;;10.60;99.90;;;;;;5116370;28;20083;-28
2022/03/28 10:40:14;;;;;;;12.05;10.85;;;10.60;11.70;;;;;;5116207;28;20718;-27
2022/03/28 10:43:06;;;;;;;13.13;11.45;;;10.40;1.00;;;;;;5098242;28;20047;-28
2022/03/28 10:46:09;;;;;;;15.18;11.35;;;10.30;1.00;;;;;;5116176;28;20048;-28
2022/03/28 10:48:51;;;;;;;13.88;11.60;;;10.30;44.10;;;;;;5116105;28;20043;-27
2022/03/28 10:51:20;;;;;;;14.07;10.48;;;10.10;1.00;;;;;;5115766;28;20063;-27
2022/03/28 10:53:51;;;;;;;15.80;11.23;;;10.40;99.90;;;;;;5115729;28;20491;-28
2022/03/28 10:56:23;;;;;;;11.68;10.00;;;10.50;99.20;;;;;;5116059;28;20048;-28
2022/03/28 10:58:57;;;;;;;13.25;10.48;;;10.40;49.10;;;;;;5115910;28;20055;-28
2022/03/28 11:01:28;;;;;;;13.68;11.93;;;10.40;1.00;;;;;;5116523;28;20056;-28
2022/03/28 11:04:15;;;;;;;16.27;12.90;;;10.10;4.80;;;;;;5116087;28;20055;-29
2022/03/28 11:07:00;;;;;;;15.73;12.63;;;10.40;49.20;;;;;;5115773;28;20044;-28
2022/03/28 11:09:34;;;;;;;16.35;11.38;;;10.70;1.00;;;;;;5115706;28;20058;-28
2022/03/28 11:12:09;;;;;;;16.38;12.38;;;10.70;1.00;;;;;;5116324;28;20040;-29
2022/03/28 11:14:44;;;;;;;20.30;12.70;;;10.60;1.00;;;;;;5096402;28;20126;-28
2022/03/28 11:17:23;;;;;;;18.63;12.07;;;10.50;1.00;;;;;;5115596;28;20043;-28
2022/03/28 11:20:00;;;;;;;16.70;11.68;;;10.50;1.00;;;;;;5130664;27;20484;-28
2022/03/28 11:22:55;;;;;;;13.93;11.07;;;10.70;32.10;;;;;;5117129;27;20044;-28
2022/03/28 11:25:27;;;;;;;12.63;11.32;;;10.80;1.00;;;;;;5060971;28;20397;-28
2022/03/28 11:28:10;;;;;;;14.77;11.40;;;10.70;1.00;;;;;;5129694;27;20043;-28
2022/03/28 11:30:49;;;;;;;14.52;11.98;;;11.00;1.00;;;;;;5136103;27;20118;-28
2022/03/28 11:37:00;;;;;;;13.75;12.07;;;10.90;1.00;;;;;;5123032;27;20423;-28
2022/03/28 11:39:27;;;;;;;16.88;11.95;;;11.00;1.00;;;;;;5128857;27;20035;-28
2022/03/28 11:41:54;;;;;;;12.88;11.35;;;11.00;1.00;;;;;;5121474;27;20043;-27
2022/03/28 11:44:20;;;;;;;13.27;11.88;;;11.20;1.00;;;;;;5114804;27;20046;-27
2022/03/28 11:47:04;;;;;;;13.48;10.82;;;11.30;1.00;;;;;;5120578;27;20419;-29
2022/03/28 11:49:29;;;;;;;13.02;11.27;;;11.40;1.00;;;;;;5098170;28;20047;-27
2022/03/28 11:52:03;;;;;;;14.00;10.82;;;11.30;1.00;;;;;;5114673;28;20055;-27
2022/03/28 11:54:30;;;;;;;12.98;11.05;;;11.60;1.00;;;;;;5079532;28;20494;-28
2022/03/28 11:59:41;;;;;;;17.10;11.50;;;11.90;1.00;;;;;;5099526;28;20056;-27
2022/03/28 12:02:08;;;;;;;14.50;11.60;;;11.70;1.00;;;;;;5114538;28;20481;-27
2022/03/28 12:04:43;;;;;;;17.27;11.35;;;11.50;1.00;;;;;;5114670;28;20392;-27
2022/03/28 12:07:08;;;;;;;14.82;11.02;;;11.50;1.00;;;;;;5115414;28;20048;-27
2022/03/28 12:09:39;;;;;;;15.50;12.48;;;11.10;1.00;;;;;;5114562;28;20126;-27
2022/03/28 12:12:05;;;;;;;18.30;12.43;;;10.80;1.00;;;;;;5097703;28;20122;-27
2022/03/28 12:14:32;;;;;;;15.23;12.95;;;10.90;1.00;;;;;;5114534;28;20126;-28
2022/03/28 12:16:57;;;;;;;15.80;12.30;;;11.10;1.00;;;;;;5096743;28;20051;-27
2022/03/28 12:19:25;;;;;;;13.43;12.00;;;11.40;1.00;;;;;;5096447;28;20130;-27
2022/03/28 12:21:53;;;;;;;14.05;11.45;;;11.40;1.00;;;;;;5114313;28;20047;-27
2022/03/28 12:24:22;;;;;;;15.13;12.23;;;11.60;1.00;;;;;;5114248;28;20043;-27
2022/03/28 12:26:50;;;;;;;14.55;12.05;;;11.80;1.00;;;;;;5114130;28;20058;-27
2022/03/28 12:29:16;;;;;;;12.05;10.85;;;11.80;99.90;;;;;;5113880;28;20484;-28
2022/03/28 12:31:46;;;;;;;14.50;10.63;;;12.10;1.00;;;;;;5114144;28;20036;-27
2022/03/28 12:34:13;;;;;;;13.93;10.05;;;12.40;1.00;;;;;;5096800;28;20366;-27
2022/03/28 12:36:40;;;;;;;13.48;11.50;;;12.60;99.90;;;;;;5114107;28;20079;-27
2022/03/28 12:39:10;;;;;;;13.15;11.73;;;12.30;99.90;;;;;;5114162;28;20104;-27
2022/03/28 12:41:44;;;;;;;15.88;12.73;;;12.10;99.90;;;;;;5114723;28;20073;-27
2022/03/28 12:44:20;;;;;;;13.43;11.52;;;11.80;99.90;;;;;;5114332;28;20373;-27
2022/03/28 12:46:46;;;;;;;12.07;10.77;;;11.90;99.90;;;;;;5096051;28;20089;-27
2022/03/28 12:49:16;;;;;;;15.35;11.45;;;11.80;99.90;;;;;;5114003;28;20105;-27
2022/03/28 12:51:43;;;;;;;12.77;11.48;;;11.90;99.90;;;;;;5113529;28;20062;-28
2022/03/28 12:54:11;;;;;;;17.27;12.57;;;12.00;99.90;;;;;;5113941;28;20056;-27
2022/03/28 12:56:45;;;;;;;12.82;11.52;;;12.10;99.90;;;;;;5114183;28;20048;-28
2022/03/28 12:59:17;;;;;;;12.48;10.60;;;12.20;99.90;;;;;;5096056;28;20093;-28
2022/03/28 13:01:43;;;;;;;12.80;11.48;;;12.20;99.90;;;;;;5114477;28;20039;-28
2022/03/28 13:04:13;;;;;;;13.30;11.25;;;12.20;99.90;;;;;;5113891;28;20044;-28
2022/03/28 13:06:42;;;;;;;11.60;10.40;;;12.50;99.90;;;;;;5113842;28;20491;-28
2022/03/28 13:09:08;;;;;;;14.88;12.02;;;12.40;99.90;;;;;;5113801;28;20062;-28
2022/03/28 13:11:35;;;;;;;12.98;10.68;;;12.10;99.90;;;;;;5096307;28;20472;-28
2022/03/28 13:14:02;;;;;;;15.15;11.98;;;12.30;99.90;;;;;;5114568;28;20050;-28
2022/03/28 13:16:28;;;;;;;16.13;11.98;;;12.20;99.90;;;;;;5114357;28;20123;-28
2022/03/28 13:19:18;;;;;;;13.55;11.30;;;12.20;99.90;;;;;;5113768;28;20472;-28
2022/03/28 13:21:44;;;;;;;15.68;11.55;;;12.20;99.90;;;;;;5114571;28;20032;-28
2022/03/28 13:24:13;;;;;;;15.95;11.43;;;11.90;99.90;;;;;;5113648;28;20054;-28
2022/03/28 13:26:42;;;;;;;16.63;10.88;;;12.10;99.90;;;;;;5113582;28;20061;-28
2022/03/28 13:29:23;;;;;;;13.25;11.00;;;12.00;99.90;;;;;;5114172;28;20055;-28
2022/03/28 13:31:50;;;;;;;11.90;10.65;;;12.20;99.90;;;;;;5077992;28;20044;-27
2022/03/28 13:34:17;;;;;;;13.13;10.13;;;11.90;99.90;;;;;;5113671;28;20048;-27
2022/03/28 13:36:43;;;;;;;12.45;10.57;;;11.90;99.90;;;;;;5113798;28;20130;-28
2022/03/28 13:39:09;;;;;;;12.98;9.95;;;12.10;99.90;;;;;;5117473;28;20052;-28
2022/03/28 13:41:35;;;;;;;15.52;10.65;;;12.30;99.90;;;;;;5117353;28;20036;-28
2022/03/28 13:44:02;;;;;;;13.95;10.80;;;12.20;99.90;;;;;;5117344;28;20135;-30
2022/03/28 13:46:29;;;;;;;12.32;10.98;;;12.20;99.90;;;;;;5117948;28;20055;-28
2022/03/28 13:48:55;;;;;;;14.90;11.38;;;12.00;99.90;;;;;;5117384;28;20051;-27
2022/03/28 13:51:23;;;;;;;14.57;11.38;;;12.10;99.90;;;;;;5117273;28;20435;-28
2022/03/28 13:53:50;;;;;;;14.02;11.18;;;11.90;99.90;;;;;;5116836;28;20512;-27
2022/03/28 13:56:15;;;;;;;12.93;11.13;;;11.80;99.90;;;;;;5099106;28;20468;-27
2022/03/28 13:58:41;;;;;;;13.15;10.40;;;11.70;99.90;;;;;;5117098;28;20108;-27
2022/03/28 14:01:08;;;;;;;12.93;10.77;;;11.60;99.90;;;;;;5098716;28;20098;-28
2022/03/28 14:03:35;;;;;;;13.57;10.07;;;11.70;99.90;;;;;;5098706;28;20047;-28
2022/03/28 14:06:02;;;;;;;14.57;11.90;;;11.80;99.90;;;;;;5117816;28;20362;-27
2022/03/28 14:08:30;;;;;;;13.15;10.68;;;11.70;99.90;;;;;;5117456;28;20092;-28
2022/03/28 14:10:56;;;;;;;16.60;10.85;;;11.50;99.90;;;;;;5116762;28;20043;-28
2022/03/28 14:13:22;;;;;;;15.23;11.63;;;11.20;99.90;;;;;;5116829;28;20126;-28
2022/03/28 14:15:48;;;;;;;17.38;11.35;;;11.10;99.90;;;;;;5099315;28;20047;-27
2022/03/28 14:18:18;;;;;;;16.10;11.27;;;10.90;1.00;;;;;;5116734;28;20118;-27
2022/03/28 14:20:44;;;;;;;12.35;10.45;;;11.00;1.00;;;;;;5098779;28;20389;-27
2022/03/28 14:23:10;;;;;;;14.20;10.68;;;11.10;1.00;;;;;;5116557;28;20476;-27
2022/03/28 14:25:37;;;;;;;12.13;10.43;;;11.10;1.00;;;;;;5098443;28;20050;-27
2022/03/28 14:28:02;;;;;;;17.38;11.40;;;10.80;1.00;;;;;;5116484;28;20105;-27
2022/03/28 14:30:29;;;;;;;15.73;11.98;;;10.70;1.00;;;;;;5116293;28;20032;-26
2022/03/28 14:32:58;;;;;;;16.98;11.60;;;10.70;1.00;;;;;;5116422;28;20043;-27
2022/03/28 14:35:26;;;;;;;15.35;12.07;;;10.60;1.00;;;;;;5082914;28;20387;-27
2022/03/28 14:37:53;;;;;;;18.60;12.85;;;10.50;1.00;;;;;;5116687;28;20453;-26
2022/03/28 14:40:21;;;;;;;17.08;12.27;;;10.40;1.00;;;;;;5116255;28;20043;-27
2022/03/28 14:42:46;;;;;;;15.77;11.57;;;10.40;1.00;;;;;;5098957;28;20125;-27
2022/03/28 14:45:13;;;;;;;15.20;11.73;;;10.50;1.00;;;;;;5098192;28;20039;-27
2022/03/28 14:47:39;;;;;;;16.95;12.93;;;10.50;1.00;;;;;;5116122;28;20121;-27
2022/03/28 14:50:07;;;;;;;17.30;12.43;;;10.30;1.00;;;;;;5115814;28;20047;-26
2022/03/28 14:52:33;;;;;;;15.45;12.45;;;10.30;1.00;;;;;;5116524;28;20192;-27
2022/03/28 14:54:59;;;;;;;15.43;12.25;;;10.10;1.00;;;;;;5115975;28;20497;-26
2022/03/28 14:57:25;;;;;;;15.05;11.77;;;10.00;1.00;;;;;;5116399;28;20130;-26
2022/03/28 14:59:51;;;;;;;19.48;12.30;;;9.90;1.00;;;;;;5097836;28;20044;-26
2022/03/28 15:02:18;;;;;;;15.77;12.18;;;9.70;9.30;;;;;;5097625;28;20112;-27
2022/03/28 15:04:44;;;;;;;17.20;13.55;;;9.50;34.90;;;;;;5097858;28;20541;-26
2022/03/28 15:07:10;;;;;;;16.95;13.15;;;9.50;78.40;;;;;;5115746;28;20051;-26
2022/03/28 15:09:37;;;;;;;16.60;13.05;;;9.50;98.80;;;;;;5098162;28;20062;-26
2022/03/28 15:12:04;;;;;;;15.18;12.80;;;9.50;82.80;;;;;;5081388;28;20054;-27
2022/03/28 15:14:29;;;;;;;15.65;12.63;;;9.40;91.90;;;;;;5097408;28;20043;-26
2022/03/28 15:16:55;;;;;;;15.38;12.70;;;9.40;92.40;;;;;;5116160;28;20527;-26
2022/03/28 15:19:22;;;;;;;15.00;11.68;;;9.40;98.90;;;;;;5116048;28;20392;-26
2022/03/28 15:21:48;;;;;;;16.85;13.77;;;9.30;97.00;;;;;;5115509;28;20039;-25
2022/03/28 15:24:14;;;;;;;14.93;12.55;;;9.10;99.90;;;;;;5115152;28;20387;-25
2022/03/28 15:26:40;;;;;;;20.15;13.38;;;9.00;99.90;;;;;;5115338;28;20104;-25
2022/03/28 15:29:07;;;;;;;16.00;13.45;;;9.00;99.90;;;;;;5115354;28;20090;-25
2022/03/28 15:31:41;;;;;;;18.90;13.27;;;8.90;99.90;;;;;;5115687;28;20047;-25
2022/03/28 15:34:15;;;;;;;17.45;13.00;;;8.80;99.90;;;;;;5097548;28;20047;-25
2022/03/28 15:36:46;;;;;;;21.67;13.70;;;8.70;99.90;;;;;;5115212;28;20059;-25
2022/03/28 15:39:14;;;;;;;16.25;13.40;;;8.70;99.90;;;;;;5115585;28;20043;-25
2022/03/28 15:41:41;;;;;;;18.98;14.30;;;8.60;99.90;;;;;;5114879;28;20484;-25
2022/03/28 15:44:08;;;;;;;18.27;13.52;;;8.50;99.90;;;;;;5115094;28;20056;-25
2022/03/28 15:46:35;;;;;;;18.33;14.20;;;8.50;99.90;;;;;;5096851;28;20127;-25
2022/03/28 15:49:01;;;;;;;16.92;13.98;;;8.50;99.90;;;;;;5115532;28;20062;-25
2022/03/28 15:51:27;;;;;;;20.67;14.63;;;8.50;99.90;;;;;;5114475;28;20055;-25
2022/03/28 15:53:53;;;;;;;19.70;15.02;;;8.50;99.90;;;;;;5114862;28;20135;-25
2022/03/28 15:56:20;;;;;;;19.92;15.15;;;8.50;99.90;;;;;;5096598;28;20052;-26
2022/03/28 15:58:46;;;;;;;17.65;13.63;;;8.40;99.90;;;;;;5096773;28;20047;-25
2022/03/28 16:03:59;;;;;;;21.65;15.23;;;8.20;99.90;;;;;;5114741;28;20150;-25
2022/03/28 16:06:25;;;;;;;22.90;16.27;;;8.20;99.90;;;;;;5114644;28;20047;-25
2022/03/28 16:08:51;;;;;;;25.48;17.08;;;8.10;99.90;;;;;;5096614;28;20121;-25
2022/03/28 16:11:17;;;;;;;23.02;17.08;;;8.10;99.90;;;;;;5114477;28;20051;-25
2022/03/28 16:13:43;;;;;;;27.05;16.67;;;8.00;99.90;;;;;;5115321;28;20537;-25
2022/03/28 16:16:09;;;;;;;22.73;16.63;;;8.00;99.90;;;;;;5095891;28;20066;-25
2022/03/28 16:18:35;;;;;;;20.52;15.75;;;8.00;99.90;;;;;;5096093;28;20558;-25
2022/03/28 16:21:00;;;;;;;24.15;16.50;;;8.00;99.90;;;;;;5096456;28;20094;-25
2022/03/28 16:23:27;;;;;;;23.50;17.60;;;8.10;99.90;;;;;;5114291;28;20121;-25
2022/03/28 16:25:53;;;;;;;21.13;15.95;;;7.90;1.00;;;;;;5115121;28;20417;-26
2022/03/28 16:28:20;;;;;;;24.92;16.10;;;7.80;99.90;;;;;;5096416;28;20044;-25
2022/03/28 16:30:47;;;;;;;21.42;16.30;;;7.80;1.00;;;;;;5096009;28;20130;-25
2022/03/28 16:33:13;;;;;;;24.10;16.77;;;7.70;1.00;;;;;;5079228;28;20047;-25
2022/03/28 16:35:40;;;;;;;23.77;16.58;;;7.60;1.00;;;;;;5114140;28;20396;-26
2022/03/28 16:38:06;;;;;;;24.80;17.42;;;7.70;1.00;;;;;;5096782;28;20083;-25
2022/03/28 16:40:32;;;;;;;27.73;17.58;;;7.60;1.00;;;;;;5113883;28;20455;-25
2022/03/28 16:42:58;;;;;;;23.77;17.88;;;7.60;1.00;;;;;;5114652;28;20051;-26
2022/03/28 16:45:25;;;;;;;23.95;18.05;;;7.60;1.00;;;;;;5095680;28;20043;-25
2022/03/28 16:47:51;;;;;;;24.98;18.05;;;7.60;1.00;;;;;;5096052;28;20047;-26
2022/03/28 16:50:19;;;;;;;24.27;17.25;;;7.70;1.00;;;;;;5113723;28;20048;-25
2022/03/28 16:52:45;;;;;;;27.52;19.10;;;7.70;1.00;;;;;;5096437;28;20066;-25
2022/03/28 16:55:12;;;;;;;26.73;17.67;;;7.70;1.00;;;;;;5113927;28;20048;-25
2022/03/28 16:57:39;;;;;;;25.48;18.20;;;7.70;1.00;;;;;;5095933;28;20055;-26
2022/03/28 17:00:07;;;;;;;22.60;17.50;;;7.70;1.00;;;;;;5113996;28;20473;-26
2022/03/28 17:02:34;;;;;;;27.95;18.63;;;7.70;1.00;;;;;;5114394;28;20053;-26
2022/03/28 17:04:59;;;;;;;31.33;20.30;;;7.60;1.00;;;;;;5113814;28;20050;-25
2022/03/28 17:07:25;;;;;;;31.60;22.00;;;7.60;90.10;;;;;;5113884;28;20044;-26
2022/03/28 17:09:51;;;;;;;31.45;21.83;;;7.50;99.90;;;;;;5079046;28;20472;-25
2022/03/28 17:12:17;;;;;;;30.33;20.42;;;7.50;99.90;;;;;;5115231;28;20079;-25
2022/03/28 17:14:45;;;;;;;31.08;22.25;;;7.50;99.90;;;;;;5118212;28;20373;-25
2022/03/28 17:17:11;;;;;;;31.48;21.80;;;7.40;99.90;;;;;;5118472;28;20104;-25
2022/03/28 17:19:41;;;;;;;26.75;19.33;;;7.40;99.90;;;;;;5117523;28;20436;-25
2022/03/28 17:22:10;;;;;;;28.15;20.10;;;7.30;99.90;;;;;;5100482;28;20052;-26
2022/03/28 17:24:35;;;;;;;31.30;21.83;;;7.30;99.90;;;;;;5117713;28;20047;-25
2022/03/28 17:27:01;;;;;;;29.42;20.70;;;7.20;99.90;;;;;;5118011;28;20055;-25
2022/03/28 17:29:28;;;;;;;29.90;20.75;;;7.10;99.90;;;;;;5118275;28;20069;-26
2022/03/28 17:31:56;;;;;;;31.25;20.88;;;7.00;1.00;;;;;;5117639;28;20431;-25
2022/03/28 17:34:23;;;;;;;29.05;19.52;;;6.90;99.90;;;;;;5118129;28;20388;-25
2022/03/28 17:36:49;;;;;;;27.00;18.42;;;6.90;1.00;;;;;;5117490;28;20050;-25
2022/03/28 17:39:18;;;;;;;31.40;19.67;;;7.00;99.90;;;;;;5118279;28;20419;-25
2022/03/28 17:41:49;;;;;;;28.02;18.95;;;7.00;99.90;;;;;;5117411;28;20047;-25
2022/03/28 17:44:18;;;;;;;26.90;19.02;;;7.00;99.90;;;;;;5099181;28;20039;-25
2022/03/28 17:46:45;;;;;;;29.80;20.33;;;7.00;99.90;;;;;;5117394;28;20385;-25
2022/03/28 17:49:11;;;;;;;30.30;19.50;;;7.00;1.00;;;;;;5117405;28;20551;-25
2022/03/28 17:51:41;;;;;;;32.20;21.13;;;7.00;1.00;;;;;;5116845;28;20150;-25
2022/03/28 17:54:08;;;;;;;42.88;23.20;;;6.90;1.00;;;;;;5117246;28;20098;-25
2022/03/28 17:56:39;;;;;;;40.70;23.75;;;6.90;1.00;;;;;;5098890;28;20485;-25
2022/03/28 17:59:07;;;;;;;40.30;23.63;;;6.80;1.00;;;;;;5117717;28;20397;-25
2022/03/28 18:01:34;;;;;;;36.78;24.10;;;6.80;1.00;;;;;;5098899;28;20042;-25
2022/03/28 18:04:08;;;;;;;40.38;24.15;;;6.80;1.00;;;;;;5117058;28;20051;-25
2022/03/28 18:06:33;;;;;;;44.10;23.75;;;6.80;1.00;;;;;;5098819;28;20047;-25
2022/03/28 18:09:00;;;;;;;37.30;23.52;;;6.80;1.80;;;;;;5116988;28;20043;-25
2022/03/28 18:11:27;;;;;;;42.35;25.38;;;6.80;1.00;;;;;;5116751;28;20043;-25
2022/03/28 18:13:53;;;;;;;49.17;26.63;;;6.80;1.00;;;;;;5116760;28;20062;-25
2022/03/28 18:16:20;;;;;;;54.42;26.63;;;6.80;36.20;;;;;;5116738;28;20100;-25
2022/03/28 18:18:46;;;;;;;53.13;26.60;;;6.80;51.50;;;;;;5116784;28;20047;-25
2022/03/28 18:21:13;;;;;;;55.25;27.40;;;6.70;57.60;;;;;;5098896;28;20048;-25
2022/03/28 18:23:38;;;;;;;54.47;27.20;;;6.70;97.90;;;;;;5116273;28;20469;-25
2022/03/28 18:26:05;;;;;;;51.28;26.30;;;6.70;95.10;;;;;;5116681;28;20122;-25
2022/03/28 18:28:33;;;;;;;60.10;28.73;;;6.70;99.90;;;;;;5116567;28;20051;-25
2022/03/28 18:30:59;;;;;;;70.65;31.92;;;6.60;99.90;;;;;;5116467;28;20088;-25
2022/03/28 18:33:25;;;;;;;52.42;27.33;;;6.60;99.90;;;;;;5116498;28;20523;-25
2022/03/28 18:35:51;;;;;;;53.53;28.00;;;6.60;99.90;;;;;;5116145;28;20079;-25
2022/03/28 18:38:17;;;;;;;55.33;28.88;;;6.60;99.90;;;;;;5081277;28;20473;-25
2022/03/28 18:40:43;;;;;;;53.20;26.42;;;6.60;99.90;;;;;;5116379;28;20048;-26
2022/03/28 18:43:09;;;;;;;47.00;25.25;;;6.60;99.90;;;;;;5098151;28;20048;-26
2022/03/28 18:45:36;;;;;;;45.83;25.98;;;6.60;99.90;;;;;;5116393;28;20043;-25
2022/03/28 18:48:03;;;;;;;47.60;24.92;;;6.60;99.90;;;;;;5116312;28;20096;-25
2022/03/28 18:50:30;;;;;;;45.78;23.52;;;6.60;99.90;;;;;;5116093;28;20058;-25
2022/03/28 18:52:56;;;;;;;43.42;23.13;;;6.60;99.90;;;;;;5098609;28;20055;-25
2022/03/28 18:55:22;;;;;;;48.58;24.25;;;6.60;99.90;;;;;;5116073;28;20055;-25
2022/03/28 18:57:48;;;;;;;46.00;24.20;;;6.50;99.90;;;;;;5097710;28;20385;-25
2022/03/28 19:00:16;;;;;;;44.83;23.25;;;6.50;99.90;;;;;;5116055;28;20051;-25
2022/03/28 19:02:45;;;;;;;39.72;21.33;;;6.50;99.90;;;;;;5115932;28;20092;-25
2022/03/28 19:05:12;;;;;;;40.95;22.60;;;6.50;93.90;;;;;;5115951;28;20079;-25
2022/03/28 19:07:40;;;;;;;37.83;21.20;;;6.50;69.70;;;;;;5115875;28;20043;-25
2022/03/28 19:10:06;;;;;;;36.90;19.50;;;6.50;59.00;;;;;;5081260;28;20047;-27
2022/03/28 19:12:32;;;;;;;36.60;20.48;;;6.50;52.10;;;;;;5115788;28;20059;-25
2022/03/28 19:14:58;;;;;;;26.73;16.08;;;6.50;38.20;;;;;;5115712;28;20051;-25
2022/03/28 19:17:24;;;;;;;28.60;16.25;;;6.50;11.70;;;;;;5097356;28;20048;-26
2022/03/28 19:19:50;;;;;;;25.42;16.38;;;6.50;1.00;;;;;;5097547;28;20050;-25
2022/03/28 19:22:16;;;;;;;26.42;16.33;;;6.50;1.00;;;;;;5115730;28;20043;-25
2022/03/28 19:24:42;;;;;;;25.33;15.30;;;6.50;1.00;;;;;;5097349;28;20047;-25
2022/03/28 19:27:10;;;;;;;26.27;15.35;;;6.50;1.00;;;;;;5116288;28;20135;-26
2022/03/28 19:29:37;;;;;;;26.08;16.10;;;6.50;1.00;;;;;;5118699;27;20054;-26
2022/03/28 19:32:03;;;;;;;23.48;15.30;;;6.50;1.00;;;;;;5108730;28;20051;-28
2022/03/28 19:34:30;;;;;;;24.48;15.43;;;6.50;1.00;;;;;;5130963;27;20061;-28
2022/03/28 19:36:56;;;;;;;22.42;15.45;;;6.50;1.00;;;;;;5117127;27;20384;-27
2022/03/28 19:39:22;;;;;;;23.38;14.52;;;6.50;1.00;;;;;;5134296;27;20456;-28
2022/03/28 19:41:52;;;;;;;22.85;15.25;;;6.50;1.00;;;;;;5135810;27;20515;-27
2022/03/28 19:44:20;;;;;;;22.60;14.13;;;6.50;1.00;;;;;;5118244;27;20099;-28
2022/03/28 19:46:50;;;;;;;23.88;15.65;;;6.50;1.00;;;;;;5136190;27;20043;-27
2022/03/28 19:49:19;;;;;;;27.35;16.17;;;6.50;1.00;;;;;;5135572;27;20070;-28
2022/03/28 19:51:45;;;;;;;22.73;15.13;;;6.50;1.00;;;;;;5135491;27;20055;-27
2022/03/28 19:54:12;;;;;;;22.38;15.70;;;6.50;1.00;;;;;;5135465;27;20073;-27
2022/03/28 19:56:38;;;;;;;24.45;15.82;;;6.40;1.00;;;;;;5135456;27;20043;-28
2022/03/28 19:59:09;;;;;;;23.13;14.48;;;6.50;1.00;;;;;;5135083;27;20069;-27
2022/03/28 20:01:40;;;;;;;22.13;13.85;;;6.50;1.00;;;;;;5135688;27;20377;-27
2022/03/28 20:04:07;;;;;;;20.70;14.65;;;6.50;1.00;;;;;;5117297;27;20434;-27
2022/03/28 20:06:34;;;;;;;19.73;13.68;;;6.50;1.00;;;;;;5117794;27;20126;-28
2022/03/28 20:09:00;;;;;;;18.77;13.20;;;6.50;1.00;;;;;;5116938;27;20057;-27
2022/03/28 20:11:26;;;;;;;18.40;12.95;;;6.50;1.00;;;;;;5117097;27;20047;-27
2022/03/28 20:13:53;;;;;;;20.23;13.13;;;6.50;1.00;;;;;;5117015;27;20051;-28
2022/03/28 20:16:19;;;;;;;19.77;13.77;;;6.50;99.90;;;;;;5135963;27;20434;-28
2022/03/28 20:18:45;;;;;;;16.63;12.30;;;6.50;99.90;;;;;;5116971;27;20047;-28
2022/03/28 20:21:12;;;;;;;16.67;12.85;;;6.50;99.90;;;;;;5135321;27;20540;-28
2022/03/28 20:23:37;;;;;;;20.60;13.02;;;6.60;99.90;;;;;;5135069;27;20054;-28
2022/03/28 20:26:04;;;;;;;16.60;11.57;;;6.50;99.90;;;;;;5135021;27;20053;-28
2022/03/28 20:28:36;;;;;;;18.75;13.15;;;6.50;99.90;;;;;;5134944;27;20039;-28
2022/03/28 20:31:03;;;;;;;17.33;13.25;;;6.50;99.90;;;;;;5134996;27;20400;-27
2022/03/28 20:33:31;;;;;;;17.45;14.10;;;6.50;99.90;;;;;;5134932;27;20051;-28
2022/03/28 20:35:57;;;;;;;20.33;14.40;;;6.40;99.90;;;;;;5116329;28;20484;-27
2022/03/28 20:38:23;;;;;;;20.20;13.65;;;6.50;99.90;;;;;;5135468;27;20043;-28
2022/03/28 20:40:50;;;;;;;19.27;14.75;;;6.50;99.90;;;;;;5134765;27;20396;-28
2022/03/28 20:43:19;;;;;;;18.58;14.82;;;6.50;99.90;;;;;;5134806;27;20054;-28
2022/03/28 20:45:51;;;;;;;20.80;15.35;;;6.50;99.90;;;;;;5116228;27;20614;-27
2022/03/28 20:48:17;;;;;;;24.05;14.02;;;6.50;99.90;;;;;;5134807;27;20079;-28
2022/03/28 20:50:43;;;;;;;23.02;13.68;;;6.50;99.90;;;;;;5135181;27;20039;-28
2022/03/28 20:53:09;;;;;;;17.60;14.07;;;6.40;99.90;;;;;;5082278;28;20104;-28
2022/03/28 20:55:34;;;;;;;17.92;13.10;;;6.40;99.90;;;;;;5117389;28;20048;-28
2022/03/28 20:58:02;;;;;;;16.65;12.57;;;6.50;99.90;;;;;;5116956;28;20142;-28
2022/03/28 21:00:28;;;;;;;18.52;14.10;;;6.40;99.90;;;;;;5134582;28;20103;-27
2022/03/28 21:02:54;;;;;;;16.70;12.90;;;6.40;99.90;;;;;;5116063;28;20496;-27
2022/03/28 21:05:24;;;;;;;18.00;11.98;;;6.40;99.90;;;;;;5134579;28;20073;-29
2022/03/28 21:07:51;;;;;;;16.15;12.27;;;6.40;99.90;;;;;;5100482;28;20051;-28
2022/03/28 21:10:17;;;;;;;15.32;11.38;;;6.40;99.90;;;;;;5116175;28;20047;-28
2022/03/28 21:12:42;;;;;;;18.00;12.77;;;6.40;99.90;;;;;;5117205;28;20050;-28
2022/03/28 21:15:08;;;;;;;16.15;12.52;;;6.40;99.90;;;;;;5115762;28;20035;-27
2022/03/28 21:17:34;;;;;;;16.23;12.55;;;6.40;99.90;;;;;;5134432;28;20047;-28
2022/03/28 21:20:00;;;;;;;17.60;12.60;;;6.40;99.90;;;;;;5134991;28;20483;-27
2022/03/28 21:22:26;;;;;;;20.25;13.88;;;6.40;99.90;;;;;;5134395;28;20074;-28
2022/03/28 21:24:53;;;;;;;18.42;13.43;;;6.40;99.90;;;;;;5116847;28;20520;-28
2022/03/28 21:27:19;;;;;;;18.83;13.02;;;6.40;99.90;;;;;;5135137;28;20365;-27
2022/03/28 21:29:47;;;;;;;19.30;13.80;;;6.40;99.90;;;;;;5116174;28;20047;-28
2022/03/28 21:32:13;;;;;;;19.42;14.30;;;6.40;99.90;;;;;;5134241;28;20076;-28
2022/03/28 21:34:41;;;;;;;19.17;13.88;;;6.40;99.90;;;;;;5135086;28;20066;-28
2022/03/28 21:37:08;;;;;;;22.38;15.70;;;6.40;99.90;;;;;;5134811;28;20122;-28
2022/03/28 21:39:38;;;;;;;20.80;15.77;;;6.30;99.90;;;;;;5116964;28;20047;-27
2022/03/28 21:42:04;;;;;;;25.98;16.83;;;6.30;99.90;;;;;;5134494;28;20108;-28
2022/03/28 21:44:31;;;;;;;24.48;16.77;;;6.30;1.00;;;;;;5134162;28;20472;-28
2022/03/28 21:46:57;;;;;;;27.05;17.67;;;6.30;1.00;;;;;;5133827;28;20511;-28